createdAt,value
2022-12-15T00:00:35.102Z,97854.50
2022-12-15T00:03:06.336Z,97856.28
2022-12-15T00:05:32.806Z,97853.53
2022-12-15T00:08:06.910Z,97861.09
2022-12-15T00:10:33.653Z,97865.25
2022-12-15T00:13:00.193Z,97871.41
2022-12-15T00:15:26.835Z,97878.44
2022-12-15T00:17:53.441Z,97877.34
2022-12-15T00:20:20.084Z,97882.84
2022-12-15T00:22:46.654Z,97877.50
2022-12-15T00:25:13.056Z,97878.31
2022-12-15T00:27:39.716Z,97869.94
2022-12-15T00:30:07.160Z,97873.22
2022-12-15T00:32:34.034Z,97878.44
2022-12-15T00:35:00.411Z,97889.88
2022-12-15T00:37:26.928Z,97883.84
2022-12-15T00:39:53.215Z,97882.72
2022-12-15T00:42:19.737Z,97881.22
2022-12-15T00:44:46.098Z,97877.63
2022-12-15T00:47:12.551Z,97876.81
2022-12-15T00:49:39.092Z,97887.00
2022-12-15T00:52:06.611Z,97889.59
2022-12-15T00:54:32.963Z,97897.19
2022-12-15T00:56:59.535Z,97903.09
2022-12-15T00:59:25.932Z,97907.09
2022-12-15T01:01:52.603Z,97906.13
2022-12-15T01:04:19.089Z,97911.38
2022-12-15T01:06:45.544Z,97910.94
2022-12-15T01:09:13.544Z,97915.09
2022-12-15T01:11:40.034Z,97916.75
2022-12-15T01:14:06.680Z,97926.81
2022-12-15T01:16:33.170Z,97912.63
2022-12-15T01:18:59.581Z,97910.56
2022-12-15T01:21:26.177Z,97918.13
2022-12-15T01:23:52.950Z,97916.19
2022-12-15T01:26:19.703Z,97920.59
2022-12-15T01:28:46.179Z,97931.59
2022-12-15T01:31:12.963Z,97933.94
2022-12-15T01:33:39.834Z,97929.84
2022-12-15T01:36:06.357Z,97940.44
2022-12-15T01:38:32.826Z,97947.19
2022-12-15T01:41:02.671Z,97932.19
2022-12-15T01:43:33.253Z,97926.38
2022-12-15T01:46:12.098Z,97932.47
2022-12-15T01:48:46.689Z,97933.28
2022-12-15T01:51:22.863Z,97944.84
2022-12-15T01:54:18.132Z,97929.84
2022-12-15T01:56:48.428Z,97927.50
2022-12-15T01:59:20.999Z,97939.72
2022-12-15T02:01:50.038Z,97942.34
2022-12-15T02:04:19.513Z,97950.63
2022-12-15T02:06:45.894Z,97958.34
2022-12-15T02:09:12.554Z,97946.22
2022-12-15T02:11:43.391Z,97956.00
2022-12-15T02:14:11.046Z,97955.59
2022-12-15T02:16:55.907Z,97956.13
2022-12-15T02:19:51.566Z,97979.56
2022-12-15T02:22:33.946Z,97978.59
2022-12-15T02:25:28.373Z,97967.31
2022-12-15T02:28:11.662Z,97963.97
2022-12-15T02:30:56.563Z,97960.28
2022-12-15T02:33:30.016Z,97965.91
2022-12-15T02:36:15.398Z,97960.41
2022-12-15T02:38:41.927Z,97958.59
2022-12-15T02:41:36.160Z,97969.22
2022-12-15T02:44:19.978Z,97968.41
2022-12-15T02:46:55.221Z,97973.75
2022-12-15T02:49:33.467Z,97976.38
2022-12-15T02:52:22.993Z,97980.94
2022-12-15T02:55:12.696Z,97984.09
2022-12-15T02:57:56.620Z,97984.66
2022-12-15T03:00:23.182Z,97992.94
2022-12-15T03:02:53.552Z,97990.16
2022-12-15T03:05:22.179Z,97983.69
2022-12-15T03:07:53.579Z,97985.91
2022-12-15T03:10:23.128Z,97993.03
2022-12-15T03:12:49.687Z,98002.53
2022-12-15T03:15:17.273Z,98006.41
2022-12-15T03:17:43.604Z,98011.38
2022-12-15T03:20:10.892Z,98020.31
2022-12-15T03:22:38.284Z,98015.91
2022-12-15T03:25:05.397Z,98001.88
2022-12-15T03:27:31.796Z,98011.47
2022-12-15T03:29:58.231Z,98004.88
2022-12-15T03:32:24.672Z,98005.97
2022-12-15T03:34:51.265Z,98005.69
2022-12-15T03:37:17.974Z,98013.97
2022-12-15T03:39:44.473Z,98011.78
2022-12-15T03:42:10.821Z,98007.94
2022-12-15T03:44:37.439Z,98012.34
2022-12-15T03:47:06.237Z,98013.56
2022-12-15T03:49:32.898Z,98030.78
2022-12-15T03:51:59.312Z,98041.78
2022-12-15T03:54:25.773Z,98055.72
2022-12-15T03:56:52.130Z,98058.06
2022-12-15T03:59:18.887Z,98063.16
2022-12-15T04:01:47.416Z,98063.41
2022-12-15T04:04:13.906Z,98066.84
2022-12-15T04:06:40.376Z,98076.78
2022-12-15T04:09:06.904Z,98075.53
2022-12-15T04:11:33.430Z,98084.78
2022-12-15T04:13:59.967Z,98085.34
2022-12-15T04:16:26.665Z,98087.53
2022-12-15T04:18:53.242Z,98091.84
2022-12-15T04:21:19.745Z,98095.28
2022-12-15T04:23:47.155Z,98082.03
2022-12-15T04:26:13.668Z,98075.81
2022-12-15T04:28:40.254Z,98078.44
2022-12-15T04:31:10.837Z,98087.16
2022-12-15T04:33:39.941Z,98083.41
2022-12-15T04:36:09.357Z,98090.84
2022-12-15T04:38:35.992Z,98088.63
2022-12-15T04:41:02.449Z,98086.16
2022-12-15T04:43:29.382Z,98080.94
2022-12-15T04:45:57.053Z,98085.34
2022-12-15T04:48:23.590Z,98079.69
2022-12-15T04:50:50.093Z,98077.63
2022-12-15T04:53:18.139Z,98083.41
2022-12-15T04:55:44.612Z,98073.91
2022-12-15T04:58:11.252Z,98080.13
2022-12-15T05:00:37.985Z,98089.22
2022-12-15T05:03:10.331Z,98084.91
2022-12-15T05:05:38.869Z,98080.09
2022-12-15T05:08:05.280Z,98079.13
2022-12-15T05:10:31.694Z,98077.31
2022-12-15T05:13:08.270Z,98075.81
2022-12-15T05:15:35.648Z,98080.34
2022-12-15T05:18:02.300Z,98079.78
2022-12-15T05:20:28.745Z,98078.00
2022-12-15T05:22:56.426Z,98069.75
2022-12-15T05:25:23.000Z,98062.72
2022-12-15T05:27:49.374Z,98070.59
2022-12-15T05:30:15.801Z,98083.94
2022-12-15T05:32:42.509Z,98081.31
2022-12-15T05:35:08.903Z,98085.47
2022-12-15T05:37:35.329Z,98095.00
2022-12-15T05:40:01.954Z,98100.22
2022-12-15T05:42:28.511Z,98105.03
2022-12-15T05:44:54.934Z,98110.81
2022-12-15T05:47:21.602Z,98107.38
2022-12-15T05:49:47.923Z,98105.59
2022-12-15T05:52:14.413Z,98111.66
2022-12-15T05:54:41.060Z,98106.69
2022-12-15T05:57:07.391Z,98104.63
2022-12-15T05:59:33.896Z,98097.19
2022-12-15T06:02:00.342Z,98101.16
2022-12-15T06:04:26.865Z,98100.78
2022-12-15T06:06:53.502Z,98112.63
2022-12-15T06:09:20.078Z,98116.88
2022-12-15T06:11:46.959Z,98115.09
2022-12-15T06:14:13.607Z,98130.53
2022-12-15T06:16:50.128Z,98120.31
2022-12-15T06:19:17.722Z,98128.88
2022-12-15T06:21:44.047Z,98130.66
2022-12-15T06:24:10.736Z,98141.69
2022-12-15T06:26:38.647Z,98145.97
2022-12-15T06:29:09.329Z,98138.53
2022-12-15T06:31:37.137Z,98133.41
2022-12-15T06:34:06.306Z,98139.91
2022-12-15T06:36:33.072Z,98130.53
2022-12-15T06:39:00.997Z,98129.03
2022-12-15T06:41:29.847Z,98123.09
2022-12-15T06:43:56.682Z,98124.63
2022-12-15T06:46:24.308Z,98116.47
2022-12-15T06:48:50.924Z,98108.34
2022-12-15T06:51:18.064Z,98112.34
2022-12-15T06:53:45.031Z,98108.75
2022-12-15T06:56:35.075Z,98122.53
2022-12-15T06:59:06.141Z,98118.00
2022-12-15T07:01:35.365Z,98103.50
2022-12-15T07:04:02.441Z,98114.41
2022-12-15T07:06:34.269Z,98111.38
2022-12-15T07:09:00.718Z,98106.41
2022-12-15T07:11:27.412Z,98111.53
2022-12-15T07:13:54.374Z,98122.28
2022-12-15T07:16:22.947Z,98112.91
2022-12-15T07:18:49.603Z,98128.59
2022-12-15T07:21:16.604Z,98126.41
2022-12-15T07:23:59.176Z,98138.00
2022-12-15T07:26:27.856Z,98148.19
2022-12-15T07:28:54.741Z,98148.19
2022-12-15T07:31:22.719Z,98134.53
2022-12-15T07:33:49.500Z,98135.09
2022-12-15T07:36:16.386Z,98130.94
2022-12-15T07:38:42.883Z,98123.91
2022-12-15T07:41:10.132Z,98130.38
2022-12-15T07:43:37.961Z,98128.59
2022-12-15T07:46:05.563Z,98124.75
2022-12-15T07:48:32.575Z,98117.88
2022-12-15T07:51:07.286Z,98122.97
2022-12-15T07:53:36.154Z,98123.38
2022-12-15T07:56:07.909Z,98127.41
2022-12-15T07:58:36.005Z,98134.84
2022-12-15T08:01:05.244Z,98132.94
2022-12-15T08:03:32.911Z,98144.94
2022-12-15T08:06:06.686Z,98152.09
2022-12-15T08:08:34.584Z,98163.53
2022-12-15T08:11:06.141Z,98161.31
2022-12-15T08:16:20.752Z,98175.53
2022-12-15T08:18:47.326Z,98176.91
2022-12-15T08:21:13.699Z,98180.34
2022-12-15T08:23:40.053Z,98203.81
2022-12-15T08:26:09.656Z,98200.50
2022-12-15T08:28:37.786Z,98192.50
2022-12-15T08:31:13.248Z,98202.97
2022-12-15T08:33:39.929Z,98206.97
2022-12-15T08:36:10.477Z,98211.53
2022-12-15T08:38:38.965Z,98205.47
2022-12-15T08:41:15.999Z,98195.34
2022-12-15T08:43:48.199Z,98192.44
2022-12-15T08:46:21.244Z,98204.72
2022-12-15T08:48:47.952Z,98197.56
2022-12-15T08:51:15.453Z,98201.88
2022-12-15T08:53:42.362Z,98206.84
2022-12-15T08:56:11.428Z,98210.84
2022-12-15T08:58:38.756Z,98203.22
2022-12-15T09:01:07.990Z,98200.47
2022-12-15T09:03:35.893Z,98200.84
2022-12-15T09:06:04.349Z,98193.25
2022-12-15T09:08:31.053Z,98191.28
2022-12-15T09:10:58.588Z,98186.97
2022-12-15T09:13:25.438Z,98175.19
2022-12-15T09:16:09.531Z,98134.16
2022-12-15T09:18:36.675Z,98112.63
2022-12-15T09:21:04.784Z,98109.84
2022-12-15T09:23:32.405Z,98065.19
2022-12-15T09:26:07.376Z,98033.38
2022-12-15T09:28:34.592Z,98030.44
2022-12-15T09:31:06.108Z,98026.03
2022-12-15T09:33:34.405Z,98008.44
2022-12-15T09:36:01.731Z,98006.88
2022-12-15T09:38:28.173Z,98001.84
2022-12-15T09:40:54.634Z,97970.16
2022-12-15T09:43:46.588Z,97932.31
2022-12-15T09:46:30.866Z,97920.50
2022-12-15T09:49:02.225Z,97938.25
2022-12-15T09:51:54.430Z,97924.38
2022-12-15T09:54:23.971Z,97948.59
2022-12-15T09:56:55.793Z,97971.03
2022-12-15T09:59:26.301Z,97951.63
2022-12-15T10:02:13.742Z,97959.28
2022-12-15T10:06:06.145Z,97953.97
2022-12-15T10:08:23.845Z,97912.59
2022-12-15T10:10:55.097Z,97958.50
2022-12-15T10:14:13.125Z,97965.22
2022-12-15T10:17:05.700Z,97960.06
2022-12-15T10:19:41.206Z,97951.31
2022-12-15T10:22:14.327Z,97958.97
2022-12-15T10:27:46.431Z,97981.44
2022-12-15T10:30:16.052Z,97976.19
2022-12-15T10:32:59.481Z,97949.56
2022-12-15T10:35:32.209Z,97936.00
2022-12-15T10:38:01.079Z,97922.56
2022-12-15T10:40:50.802Z,97924.25
2022-12-15T10:43:42.060Z,97920.56
2022-12-15T10:46:11.976Z,97914.59
2022-12-15T10:48:39.217Z,97940.13
2022-12-15T10:51:16.482Z,97963.63
2022-12-15T10:53:52.101Z,97946.22
2022-12-15T10:56:32.804Z,97957.56
2022-12-15T10:59:31.635Z,97964.03
2022-12-15T11:02:27.868Z,97964.03
2022-12-15T11:05:01.752Z,97961.41
2022-12-15T11:07:55.779Z,97969.91
2022-12-15T11:10:25.702Z,97950.81
2022-12-15T11:13:12.988Z,97939.78
2022-12-15T11:15:43.343Z,97915.03
2022-12-15T11:18:43.224Z,97912.34
2022-12-15T11:21:12.540Z,97920.66
2022-12-15T11:24:09.738Z,97892.31
2022-12-15T11:26:48.824Z,97898.97
2022-12-15T11:29:21.446Z,97915.81
2022-12-15T11:31:50.160Z,97910.41
2022-12-15T11:34:39.034Z,97919.81
2022-12-15T11:40:33.233Z,97881.78
2022-12-15T11:43:21.471Z,97884.50
2022-12-15T11:46:16.683Z,97868.09
2022-12-15T11:48:58.164Z,97872.44
2022-12-15T11:51:36.481Z,97889.22
2022-12-15T11:54:10.163Z,97891.25
2022-12-15T11:56:47.589Z,97889.31
2022-12-15T11:59:34.341Z,97862.84
2022-12-15T12:02:19.396Z,97867.59
2022-12-15T12:05:13.851Z,97841.00
2022-12-15T12:07:53.193Z,97801.44
2022-12-15T12:10:33.099Z,97780.38
2022-12-15T12:13:14.945Z,97772.31
2022-12-15T12:15:54.773Z,97788.56
2022-12-15T12:18:52.023Z,97801.09
2022-12-15T12:21:24.790Z,97761.81
2022-12-15T12:24:01.291Z,97730.00
2022-12-15T12:26:56.035Z,97726.91
2022-12-15T12:29:34.422Z,97757.00
2022-12-15T12:32:28.054Z,97785.78
2022-12-15T12:35:31.112Z,97799.78
2022-12-15T12:38:03.282Z,97807.34
2022-12-15T12:40:55.207Z,97802.72
2022-12-15T12:43:40.546Z,97795.50
2022-12-15T12:46:15.177Z,97759.31
2022-12-15T12:49:00.331Z,97736.72
2022-12-15T12:51:30.475Z,97751.75
2022-12-15T12:53:58.944Z,97767.22
2022-12-15T12:56:48.695Z,97751.81
2022-12-15T12:59:29.308Z,97713.72
2022-12-15T13:01:57.824Z,97734.97
2022-12-15T13:04:30.199Z,97760.13
2022-12-15T13:07:33.361Z,97792.44
2022-12-15T13:10:21.243Z,97817.72
2022-12-15T13:12:58.743Z,97840.72
2022-12-15T13:15:28.404Z,97868.22
2022-12-15T13:18:16.715Z,97871.81
2022-12-15T13:20:45.538Z,97870.47
2022-12-15T13:23:21.386Z,97864.72
2022-12-15T13:25:55.523Z,97844.19
2022-12-15T13:28:31.529Z,97855.88
2022-12-15T13:31:13.129Z,97852.63
2022-12-15T13:33:51.220Z,97809.06
2022-12-15T13:36:39.492Z,97827.75
2022-12-15T13:39:11.802Z,97841.72
2022-12-15T13:42:32.205Z,97840.03
2022-12-15T13:44:51.369Z,97850.91
2022-12-15T13:47:25.219Z,97853.22
2022-12-15T13:50:01.419Z,97804.81
2022-12-15T13:53:17.101Z,97812.88
2022-12-15T13:55:45.937Z,97789.56
2022-12-15T13:58:18.627Z,97774.00
2022-12-15T14:00:56.659Z,97791.06
2022-12-15T14:03:23.886Z,97818.81
2022-12-15T14:05:53.295Z,97848.59
2022-12-15T14:08:21.770Z,97857.09
2022-12-15T14:10:54.193Z,97863.66
2022-12-15T14:13:24.862Z,97868.53
2022-12-15T14:15:56.021Z,97855.72
2022-12-15T14:18:37.812Z,97859.59
2022-12-15T14:21:34.767Z,97857.72
2022-12-15T14:24:36.975Z,97842.22
2022-12-15T14:26:47.662Z,97844.47
2022-12-15T14:29:18.246Z,97835.97
2022-12-15T14:31:49.466Z,97838.88
2022-12-15T14:34:39.822Z,97838.97
2022-12-15T14:37:11.739Z,97807.75
2022-12-15T14:39:44.350Z,97842.22
2022-12-15T14:42:29.518Z,97846.47
2022-12-15T14:44:58.055Z,97826.06
2022-12-15T14:47:24.886Z,97840.38
2022-12-15T14:49:51.497Z,97842.78
2022-12-15T14:52:31.938Z,97856.19
2022-12-15T14:55:01.693Z,97865.88
2022-12-15T14:57:43.353Z,97892.16
2022-12-15T15:00:28.092Z,97882.03
2022-12-15T15:03:04.785Z,97895.56
2022-12-15T15:03:19.176Z,97870.69
2022-12-15T15:05:57.920Z,97859.53
2022-12-15T15:08:32.667Z,97887.09
2022-12-15T15:11:04.130Z,97909.03
2022-12-15T15:13:40.452Z,97919.56
2022-12-15T15:16:15.907Z,97929.19
2022-12-15T15:18:43.239Z,97951.03
2022-12-15T15:21:17.013Z,97959.63
2022-12-15T15:24:01.404Z,97965.88
2022-12-15T15:26:29.766Z,97980.81
2022-12-15T15:28:57.780Z,97984.09
2022-12-15T15:31:40.948Z,97968.88
2022-12-15T15:34:08.533Z,97973.06
2022-12-15T15:36:37.854Z,97994.91
2022-12-15T15:39:12.507Z,97995.06
2022-12-15T15:41:39.092Z,97988.81
2022-12-15T15:44:12.208Z,97988.00
2022-12-15T15:46:52.176Z,97981.78
2022-12-15T15:49:21.817Z,97975.78
2022-12-15T15:51:48.771Z,97951.94
2022-12-15T15:54:19.164Z,97948.53
2022-12-15T15:56:45.692Z,97950.28
2022-12-15T15:59:17.903Z,97975.16
2022-12-15T16:01:46.924Z,97982.53
2022-12-15T16:04:13.486Z,97990.28
2022-12-15T16:06:46.686Z,97986.97
2022-12-15T16:09:15.488Z,97959.13
2022-12-15T16:11:42.194Z,97939.41
2022-12-15T16:14:16.809Z,97928.72
2022-12-15T16:16:43.964Z,97930.31
2022-12-15T16:19:10.425Z,97929.34
2022-12-15T16:21:36.830Z,97943.44
2022-12-15T16:24:11.058Z,97957.03
2022-12-15T16:26:37.479Z,97946.97
2022-12-15T16:29:13.892Z,97937.38
2022-12-15T16:31:42.015Z,97944.97
2022-12-15T16:34:08.791Z,97921.16
2022-12-15T16:36:35.363Z,97925.53
2022-12-15T16:39:02.027Z,97915.03
2022-12-15T16:41:28.763Z,97917.97
2022-12-15T16:43:55.405Z,97907.81
2022-12-15T16:46:22.030Z,97892.38
2022-12-15T16:48:48.632Z,97904.47
2022-12-15T16:51:52.557Z,97903.03
2022-12-15T16:54:31.171Z,97884.88
2022-12-15T16:56:59.771Z,97884.16
2022-12-15T16:59:35.748Z,97874.31
2022-12-15T17:02:28.186Z,97875.50
2022-12-15T17:04:55.144Z,97902.53
2022-12-15T17:07:22.187Z,97911.91
2022-12-15T17:09:50.661Z,97904.38
2022-12-15T17:12:17.876Z,97880.94
2022-12-15T17:14:45.126Z,97865.03
2022-12-15T17:17:15.598Z,97850.03
2022-12-15T17:19:57.798Z,97866.91
2022-12-15T17:22:28.683Z,97866.53
2022-12-15T17:24:55.340Z,97868.94
2022-12-15T17:27:28.330Z,97860.84
2022-12-15T17:30:00.750Z,97870.94
2022-12-15T17:32:27.168Z,97855.44
2022-12-15T17:34:53.693Z,97817.44
2022-12-15T17:37:21.703Z,97813.31
2022-12-15T17:39:48.175Z,97790.38
2022-12-15T17:42:18.638Z,97786.25
2022-12-15T17:44:45.884Z,97800.22
2022-12-15T17:47:12.308Z,97804.84
2022-12-15T17:49:39.321Z,97806.50
2022-12-15T17:52:27.429Z,97807.84
2022-12-15T17:54:55.336Z,97820.06
2022-12-15T17:57:22.130Z,97830.03
2022-12-15T17:59:48.729Z,97819.00
2022-12-15T18:02:15.587Z,97808.38
2022-12-15T18:04:42.949Z,97830.66
2022-12-15T18:07:19.578Z,97844.19
2022-12-15T18:09:46.668Z,97859.09
2022-12-15T18:12:19.355Z,97875.66
2022-12-15T18:14:47.367Z,97883.41
2022-12-15T18:17:14.095Z,97865.94
2022-12-15T18:19:40.534Z,97854.91
2022-12-15T18:22:15.396Z,97846.81
2022-12-15T18:24:41.900Z,97826.97
2022-12-15T18:27:23.443Z,97828.06
2022-12-15T18:29:50.289Z,97827.44
2022-12-15T18:32:17.927Z,97820.59
2022-12-15T18:34:44.567Z,97814.16
2022-12-15T18:37:15.768Z,97836.25
2022-12-15T18:39:42.138Z,97836.34
2022-12-15T18:42:14.300Z,97849.91
2022-12-15T18:44:43.967Z,97837.31
2022-12-15T18:47:21.278Z,97831.38
2022-12-15T18:49:47.968Z,97819.09
2022-12-15T18:52:25.014Z,97816.63
2022-12-15T18:54:53.086Z,97818.56
2022-12-15T18:57:36.970Z,97825.75
2022-12-15T19:00:09.352Z,97836.25
2022-12-15T19:02:35.833Z,97821.19
2022-12-15T19:05:02.343Z,97809.06
2022-12-15T19:07:29.335Z,97814.97
2022-12-15T19:09:55.889Z,97798.72
2022-12-15T19:12:22.381Z,97788.38
2022-12-15T19:14:51.205Z,97791.66
2022-12-15T19:17:20.122Z,97780.34
2022-12-15T19:19:46.498Z,97771.53
2022-12-15T19:22:13.170Z,97750.00
2022-12-15T19:24:40.706Z,97747.31
2022-12-15T19:27:11.564Z,97735.97
2022-12-15T19:29:38.761Z,97733.66
2022-12-15T19:32:05.597Z,97731.50
2022-12-15T19:34:32.146Z,97741.16
2022-12-15T19:36:59.667Z,97731.50
2022-12-15T19:39:27.972Z,97726.94
2022-12-15T19:41:54.658Z,97726.25
2022-12-15T19:44:21.376Z,97716.47
2022-12-15T19:46:47.918Z,97695.16
2022-12-15T19:49:14.262Z,97723.47
2022-12-15T19:51:40.918Z,97724.44
2022-12-15T19:54:07.294Z,97719.38
2022-12-15T19:56:33.732Z,97720.28
2022-12-15T19:59:01.481Z,97712.22
2022-12-15T20:01:27.908Z,97744.00
2022-12-15T20:03:54.281Z,97746.75
2022-12-15T20:06:24.181Z,97753.16
2022-12-15T20:08:53.164Z,97729.25
2022-12-15T20:11:24.922Z,97727.44
2022-12-15T20:13:52.003Z,97739.06
2022-12-15T20:16:19.032Z,97746.75
2022-12-15T20:18:46.952Z,97733.50
2022-12-15T20:21:19.184Z,97738.91
2022-12-15T20:23:54.724Z,97732.00
2022-12-15T20:26:22.098Z,97729.25
2022-12-15T20:28:49.026Z,97738.59
2022-12-15T20:31:18.563Z,97734.50
2022-12-15T20:33:46.277Z,97741.38
2022-12-15T20:36:19.897Z,97755.78
2022-12-15T20:38:50.443Z,97753.00
2022-12-15T20:41:27.485Z,97740.88
2022-12-15T20:43:54.763Z,97735.47
2022-12-15T20:46:27.432Z,97751.06
2022-12-15T20:48:58.609Z,97753.97
2022-12-15T20:51:30.840Z,97748.88
2022-12-15T20:54:02.029Z,97742.66
2022-12-15T20:56:28.964Z,97739.19
2022-12-15T20:58:58.025Z,97752.31
2022-12-15T21:01:29.683Z,97748.06
2022-12-15T21:03:58.023Z,97745.00
2022-12-15T21:06:26.046Z,97743.50
2022-12-15T21:08:52.913Z,97722.66
2022-12-15T21:11:32.404Z,97721.00
2022-12-15T21:13:58.796Z,97708.03
2022-12-15T21:16:28.063Z,97722.94
2022-12-15T21:19:19.356Z,97720.81
2022-12-15T21:21:45.403Z,97720.63
2022-12-15T21:24:20.811Z,97723.13
2022-12-15T21:26:47.278Z,97726.34
2022-12-15T21:29:16.533Z,97717.97
2022-12-15T21:31:43.458Z,97718.09
2022-12-15T21:34:09.841Z,97729.41
2022-12-15T21:36:37.852Z,97726.66
2022-12-15T21:39:06.908Z,97737.44
2022-12-15T21:41:34.212Z,97740.88
2022-12-15T21:44:00.589Z,97730.69
2022-12-15T21:46:28.210Z,97729.19
2022-12-15T21:48:56.332Z,97729.06
2022-12-15T21:51:22.948Z,97726.75
2022-12-15T21:53:49.314Z,97750.34
2022-12-15T21:56:18.531Z,97766.50
2022-12-15T21:58:46.477Z,97781.41
2022-12-15T22:01:14.220Z,97801.88
2022-12-15T22:03:44.465Z,97830.31
2022-12-15T22:06:17.924Z,97843.59
2022-12-15T22:08:44.460Z,97849.81
2022-12-15T22:11:26.696Z,97868.44
2022-12-15T22:13:55.295Z,97874.00
2022-12-15T22:16:22.781Z,97886.94
2022-12-15T22:18:53.254Z,97901.00
2022-12-15T22:21:22.293Z,97905.56
2022-12-15T22:23:48.933Z,97916.75
2022-12-15T22:26:23.817Z,97908.19
2022-12-15T22:28:51.643Z,97917.03
2022-12-15T22:31:18.532Z,97913.72
2022-12-15T22:33:45.171Z,97926.13
2022-12-15T22:36:11.666Z,97939.22
2022-12-15T22:38:38.046Z,97943.00
2022-12-15T22:41:06.346Z,97947.09
2022-12-15T22:43:39.180Z,97947.94
2022-12-15T22:46:09.544Z,97951.53
2022-12-15T22:48:38.806Z,97956.75
2022-12-15T22:51:06.418Z,97962.00
2022-12-15T22:53:35.014Z,97971.66
2022-12-15T22:56:04.981Z,97973.06
2022-12-15T22:58:36.869Z,97979.69
2022-12-15T23:01:05.449Z,97972.09
2022-12-15T23:03:33.310Z,97978.84
2022-12-15T23:06:02.019Z,97990.44
2022-12-15T23:08:30.225Z,97974.16
2022-12-15T23:10:57.030Z,97981.91
2022-12-15T23:13:23.515Z,97975.97
2022-12-15T23:15:51.067Z,97968.78
2022-12-15T23:18:18.678Z,97966.16
2022-12-15T23:20:45.224Z,97971.53
2022-12-15T23:23:11.582Z,97967.81
2022-12-15T23:25:38.142Z,97965.88
2022-12-15T23:28:04.802Z,97970.69
2022-12-15T23:30:31.326Z,97976.38
2022-12-15T23:32:57.731Z,97985.06
2022-12-15T23:35:24.473Z,97991.81
2022-12-15T23:37:51.095Z,97994.31
2022-12-15T23:40:17.883Z,97996.25
2022-12-15T23:42:44.232Z,97989.78
2022-12-15T23:45:11.143Z,97990.03
2022-12-15T23:47:37.511Z,97992.94
2022-12-15T23:50:04.405Z,97996.09
2022-12-15T23:52:31.298Z,97999.41
2022-12-15T23:54:57.680Z,97998.44
2022-12-15T23:57:24.537Z,97998.31
2022-12-15T23:59:50.966Z,98010.84
